WetterOnline ( http://www.wetteronline.de )

Wetter aktuell Warwerort

Aktuelles Wetter: Cuxhaven (12m)

6-stündlich | Neueste Meldungen
Ortszeit Temperatur Wetter
Mo, 19.11. 19:00 6.0° C wolkig
Mo, 19.11. 13:00 6.8° C bewölkt
Mo, 19.11. 7:00 5.3° C bewölkt
Mo, 19.11. 1:00 5.9° C wolkig
So, 18.11. 19:00 6.8° C bedeckt
So, 18.11. 13:00 5.9° C wolkenlos
So, 18.11. 7:00 3.6° C wolkig
So, 18.11. 1:00 3.6° C wolkenlos
Ortszeit Temperatur Wetter
Mo, 19.11. 21:10 5.7° C wolkenlos
Mo, 19.11. 21:00 5.5° C leicht bewölkt
Mo, 19.11. 20:50 5.5° C leicht bewölkt
Mo, 19.11. 20:40 5.5° C bewölkt
Mo, 19.11. 20:30 5.6° C bedeckt
Mo, 19.11. 20:20 5.6° C bedeckt
Mo, 19.11. 20:00 5.7° C bedeckt
Mo, 19.11. 19:30 5.8° C bedeckt
Mo, 19.11. 19:00 6.0° C wolkig
Mo, 19.11. 18:30 6.1° C wolkig
Mo, 19.11. 18:00 6.3° C bedeckt
Ortszeit Relative Feuchte Sichtweite
Mo, 19.11. 19:00 77% 70 km
Mo, 19.11. 13:00 78% 22 km
Mo, 19.11. 7:00 91% 45 km
Mo, 19.11. 1:00 85% 70 km
So, 18.11. 19:00 84% 26 km
So, 18.11. 13:00 86% 5.0 km
So, 18.11. 7:00 77% 9 km
So, 18.11. 1:00 81% 9 km
Ortszeit Relative Feuchte Sichtweite
Mo, 19.11. 21:10 75% -
Mo, 19.11. 21:00 78% 70 km
Mo, 19.11. 20:50 78% -
Mo, 19.11. 20:40 79% -
Mo, 19.11. 20:30 80% 70 km
Mo, 19.11. 20:20 80% -
Mo, 19.11. 20:00 79% 65 km
Mo, 19.11. 19:30 79% 70 km
Mo, 19.11. 19:00 77% 70 km
Mo, 19.11. 18:30 79% 70 km
Mo, 19.11. 18:00 80% 70 km
Ortszeit Niederschlagsmenge Niederschlagsart
Mo, 19.11. 19:00 0.1 l/m2 in 12 Std. -
Mo, 19.11. 13:00 0.1 l/m2 in 6 Std. Regen
Mo, 19.11. 7:00 0.1 l/m2 in 12 Std. Sprühregen
Mo, 19.11. 1:00 0.0 l/m2 in 6 Std. -
So, 18.11. 19:00 0.1 l/m2 in 12 Std. Sprühregen
So, 18.11. 13:00 0.0 l/m2 in 6 Std. -
So, 18.11. 7:00 0.0 l/m2 in 12 Std. -
So, 18.11. 1:00 0.0 l/m2 in 6 Std. -
Ortszeit Niederschlagsmenge Niederschlagsart
Mo, 19.11. 21:10 keine Meldung -
Mo, 19.11. 21:00 0.0 l/m2 in 1 Std. -
Mo, 19.11. 20:50 keine Meldung -
Mo, 19.11. 20:40 keine Meldung -
Mo, 19.11. 20:30 0.0 l/m2 in 1 Std. -
Mo, 19.11. 20:20 keine Meldung -
Mo, 19.11. 20:00 0.0 l/m2 in 1 Std. -
Mo, 19.11. 19:30 0.0 l/m2 in 1 Std. -
Mo, 19.11. 19:00 0.0 l/m2 in 1 Std. -
Mo, 19.11. 18:30 0.0 l/m2 in 1 Std. -
Mo, 19.11. 18:00 0.0 l/m2 in 1 Std. -
Ortszeit Stärke Spitze Richtung
km/h Bft. km/h Grad Sektor
Mo, 19.11. 19:00 41 6 56 90° O
Mo, 19.11. 13:00 32 5 50 70° O
Mo, 19.11. 7:00 29 5 47 50° NO
Mo, 19.11. 1:00 26 4 50 60° NO
So, 18.11. 19:00 22 4 32 50° NO
So, 18.11. 13:00 17 3 24 60° NO
So, 18.11. 7:00 17 3 37 80° O
So, 18.11. 1:00 22 4 40 110° O
Ortszeit Stärke Spitze Richtung
km/h Bft. km/h Grad Sektor
Mo, 19.11. 21:10 37 5 - 80° O
Mo, 19.11. 21:00 39 6 50 80° O
Mo, 19.11. 20:50 39 6 - 80° O
Mo, 19.11. 20:40 35 5 - 80° O
Mo, 19.11. 20:30 33 5 44 80° O
Mo, 19.11. 20:20 33 5 - 80° O
Mo, 19.11. 20:00 31 5 52 80° O
Mo, 19.11. 19:30 33 5 52 70° O
Mo, 19.11. 19:00 41 6 52 90° O
Mo, 19.11. 18:30 32 5 43 100° O
Mo, 19.11. 18:00 26 4 43 80° O
Ortszeit Untergrenze Bedeckung Gattung
total tief tief mittel hoch
Mo, 19.11. 19:00 1800 m 6/8 6/8 - - -
Mo, 19.11. 13:00 570 m 7/8 7/8 - - -
Mo, 19.11. 7:00 900 m 7/8 7/8 - - -
Mo, 19.11. 1:00 1320 m 8/8 1/8 - - -
So, 18.11. 19:00 720 m 8/8 8/8 - - -
So, 18.11. 13:00 240 m 0/8 0/8 - - -
So, 18.11. 7:00 5400 m 6/8 2/8 - - -
So, 18.11. 1:00 - 0/8 0/8 - - -
Ortszeit Bedeckungsgrad in Achtel und Wolkenuntergrenze
Mo, 19.11. 21:10 keine Wolken
Mo, 19.11. 21:00 4(1800m)
Mo, 19.11. 20:50 4(1800m)
Mo, 19.11. 20:40 7(1800m)
Mo, 19.11. 20:30 8(1800m)
Mo, 19.11. 20:20 8(1800m)
Mo, 19.11. 20:00 8(1800m)
Mo, 19.11. 19:30 8(1800m)
Mo, 19.11. 19:00 6(1800m)
Mo, 19.11. 18:30 2(750m) 5(870m) 6(1800m)
Mo, 19.11. 18:00 4(750m) 7(1230m) 8(1800m)
Ortszeit Luftdruck NN (hPa) Tendenz (hPa in 3 Std.)
Mo, 19.11. 19:00 1024 0,0
Mo, 19.11. 13:00 1025 - 1,6
Mo, 19.11. 7:00 1027 - 1,2
Mo, 19.11. 1:00 1030 - 0,9
So, 18.11. 19:00 1032 - 0,4
So, 18.11. 13:00 1034 - 1,2
So, 18.11. 7:00 1036 - 0,6
So, 18.11. 1:00 1037 - 0,1
Ortszeit Luftdruck NN (hPa) Tendenz (hPa in 3 Std.)
Mo, 19.11. 21:10 1024 keine Meldung
Mo, 19.11. 21:00 1024 - 0,2
Mo, 19.11. 20:50 1024 keine Meldung
Mo, 19.11. 20:40 1024 keine Meldung
Mo, 19.11. 20:30 1024 - 0,1
Mo, 19.11. 20:20 1024 keine Meldung
Mo, 19.11. 20:00 1024 + 0,1
Mo, 19.11. 19:30 1024 + 0,1
Mo, 19.11. 19:00 1024 0,0
Mo, 19.11. 18:30 1024 0,0
Mo, 19.11. 18:00 1024 - 0,2
Ortszeit Schneehöhe (cm)
Mo, 19.11. 19:00 0
Mo, 19.11. 13:00 0
Mo, 19.11. 7:00 0
Mo, 19.11. 1:00 0
So, 18.11. 19:00 0
So, 18.11. 13:00 0
So, 18.11. 7:00 0
So, 18.11. 1:00 0
Ortszeit Schneehöhe (cm)
Mo, 19.11. 21:10 0
Mo, 19.11. 21:00 0
Mo, 19.11. 20:50 0
Mo, 19.11. 20:40 0
Mo, 19.11. 20:30 0
Mo, 19.11. 20:20 0
Mo, 19.11. 20:00 0
Mo, 19.11. 19:30 0
Mo, 19.11. 19:00 0
Mo, 19.11. 18:30 0
Mo, 19.11. 18:00 0
Link zu dieser Seite / Seite empfehlen

Das Wetter in ...